Terminal Aerodrome Forecast
Issued by NWS Medford, OR

Home | Current Version | Previous Version | Text Only | Print | Product List | Glossary On
Versions: 1 2 3 4 5 6 7 8 9 10 11 12 13 14 15 16 17 18 19
694
FTUS46 KMFR 222338
TAFMFR
TAF
KMFR 222338Z 2300/2324 31005KT P6SM SCT060 SCT200
     FM230300 VRB02KT P6SM FEW050
     FM232000 32004KT P6SM BKN120 BKN200=

USA.gov is the U.S. government's official web portal to all federal, state and local government web resources and services.